Time;durP1;ratioP1;P1;durP2;ratioP2;P2;SDS_P1;SDS_P2;PMS_P1;PMS_P2;Temp;Humidity;BMP_temperature;BMP_pressure;BME280_temperature;BME280_humidity;BME280_pressure;Samples;Min_cycle;Max_cycle;Signal;HPM_P1;HPM_P2
2023/09/26 00:03:08;;;;;;;28.80;19.70;;;;;;;16.35;100.00;99986.67;274077;1269;22169;-83
2023/09/26 00:09:12;;;;;;;27.60;18.70;;;;;;;16.33;100.00;99982.95;274095;1274;22431;-83
2023/09/26 00:16:06;;;;;;;32.40;20.00;;;;;;;16.33;100.00;99979.00;273916;1269;22348;-83
2023/09/26 00:23:11;;;;;;;24.70;17.70;;;;;;;16.34;100.00;99981.85;274027;1269;22179;-83
2023/09/26 00:30:30;;;;;;;31.10;16.50;;;;;;;16.35;100.00;99979.64;273531;1269;23395;-83
2023/09/26 00:37:12;;;;;;;24.80;16.10;;;;;;;16.37;100.00;99978.63;273129;1270;22411;-84
2023/09/26 00:44:06;;;;;;;21.20;15.50;;;;;;;16.39;100.00;99978.70;273761;1269;22257;-83
2023/09/26 00:50:09;;;;;;;21.80;14.80;;;;;;;16.41;100.00;99974.84;273569;1270;22403;-84
2023/09/26 00:57:31;;;;;;;18.90;14.30;;;;;;;16.42;100.00;99971.29;273600;1270;22452;-83
2023/09/26 01:03:55;;;;;;;20.00;13.70;;;;;;;16.39;100.00;99968.91;273911;1265;22418;-83
2023/09/26 01:10:47;;;;;;;19.40;13.30;;;;;;;16.38;100.00;99973.98;273902;1259;23427;-83
2023/09/26 01:17:16;;;;;;;21.00;13.60;;;;;;;16.39;100.00;99973.34;274028;1274;23393;-84
2023/09/26 01:23:46;;;;;;;20.50;14.40;;;;;;;16.39;100.00;99968.52;274075;1273;23790;-83
2023/09/26 01:30:09;;;;;;;21.60;14.80;;;;;;;16.39;100.00;99964.73;273866;1269;22915;-83
2023/09/26 01:36:12;;;;;;;22.10;14.80;;;;;;;16.39;100.00;99965.45;274097;1274;23190;-84
2023/09/26 01:42:17;;;;;;;22.90;15.00;;;;;;;16.39;100.00;99958.57;273453;1269;22536;-83
2023/09/26 01:48:27;;;;;;;18.30;13.90;;;;;;;16.39;100.00;99953.84;271475;1269;23123;-84
2023/09/26 01:55:10;;;;;;;20.60;14.20;;;;;;;16.39;100.00;99952.11;271561;1267;22439;-85
2023/09/26 02:01:12;;;;;;;18.70;13.90;;;;;;;16.37;100.00;99950.45;274048;1274;22116;-85
2023/09/26 02:07:14;;;;;;;18.60;13.70;;;;;;;16.35;100.00;99942.94;272938;1263;24384;-84
2023/09/26 02:13:32;;;;;;;20.70;13.20;;;;;;;16.35;100.00;99940.33;271966;1267;22528;-84
2023/09/26 02:19:33;;;;;;;22.30;13.00;;;;;;;16.33;100.00;99934.00;270269;1270;22559;-84
2023/09/26 02:25:35;;;;;;;16.70;11.70;;;;;;;16.29;100.00;99929.50;270399;1269;22591;-83
2023/09/26 02:31:37;;;;;;;17.80;11.90;;;;;;;16.23;100.00;99929.09;270547;1269;24208;-84
2023/09/26 02:37:54;;;;;;;14.10;10.50;;;;;;;16.19;100.00;99928.19;270021;1269;22528;-85
2023/09/26 02:44:37;;;;;;;14.70;10.40;;;;;;;16.15;100.00;99927.08;273349;1268;23333;-84
2023/09/26 02:51:19;;;;;;;13.20;9.90;;;;;;;16.09;100.00;99929.50;272323;1267;22569;-84
2023/09/26 02:57:22;;;;;;;14.90;8.70;;;;;;;15.98;100.00;99931.13;272696;1251;22262;-84
2023/09/26 03:03:29;;;;;;;15.20;9.30;;;;;;;15.90;100.00;99930.38;273873;1267;22175;-84
2023/09/26 03:09:34;;;;;;;;;;;;;;;15.86;100.00;99932.41;273800;1269;23821;-84
2023/09/26 03:16:30;;;;;;;12.80;8.80;;;;;;;15.77;100.00;99927.31;273963;1270;22204;-84
2023/09/26 03:22:32;;;;;;;12.20;8.20;;;;;;;15.61;100.00;99916.35;274128;1271;23265;-85
2023/09/26 03:28:40;;;;;;;8.70;6.60;;;;;;;15.52;100.00;99917.95;274077;1267;22284;-84
2023/09/26 03:34:54;;;;;;;8.50;5.50;;;;;;;15.44;100.00;99920.74;274137;1268;23540;-84
2023/09/26 03:41:20;;;;;;;12.70;7.80;;;;;;;15.28;100.00;99923.85;273992;1267;22219;-84
2023/09/26 03:48:04;;;;;;;11.70;8.20;;;;;;;15.15;100.00;99922.64;274100;1251;22162;-84
2023/09/26 03:55:28;;;;;;;9.20;7.90;;;;;;;14.93;100.00;99923.65;273776;1267;22205;-84
2023/09/26 04:01:50;;;;;;;11.60;8.00;;;;;;;14.84;100.00;99925.70;274054;1274;22179;-84
2023/09/26 04:08:42;;;;;;;10.50;7.20;;;;;;;14.77;100.00;99930.84;274011;1271;22189;-84
2023/09/26 04:15:05;;;;;;;14.50;7.80;;;;;;;14.68;100.00;99932.48;274184;1260;22242;-84
2023/09/26 04:21:07;;;;;;;12.30;8.00;;;;;;;14.59;100.00;99931.91;274041;1275;22930;-84
2023/09/26 04:27:49;;;;;;;16.70;8.10;;;;;;;14.49;100.00;99936.06;274115;1267;22189;-84
2023/09/26 04:34:55;;;;;;;13.20;8.50;;;;;;;14.40;100.00;99939.82;274171;1274;22347;-84
2023/09/26 04:41:54;;;;;;;14.60;7.90;;;;;;;14.39;100.00;99948.39;273877;1265;22980;-84
2023/09/26 04:49:01;;;;;;;25.20;9.40;;;;;;;14.35;100.00;99952.45;272732;1282;22204;-84
2023/09/26 04:55:04;;;;;;;33.00;10.40;;;;;;;14.31;100.00;99954.77;272725;1275;22500;-84
2023/09/26 05:01:34;;;;;;;30.90;11.60;;;;;;;14.29;100.00;99961.50;271698;1267;22544;-84
2023/09/26 05:08:16;;;;;;;31.90;12.20;;;;;;;14.29;100.00;99962.22;273189;1267;22542;-84
2023/09/26 05:22:52;;;;;;;42.10;9.70;;;;;;;14.36;100.00;99965.27;273768;1267;23323;-84
2023/09/26 05:29:35;;;;;;;36.30;10.20;;;;;;;14.40;100.00;99970.29;274120;1267;22216;-83
2023/09/26 05:43:17;;;;;;;36.70;11.00;;;;;;;14.52;100.00;99980.49;273886;1267;22404;-84
2023/09/26 05:50:00;;;;;;;36.30;13.10;;;;;;;14.51;100.00;99981.82;273984;1267;22249;-83
2023/09/26 05:56:22;;;;;;;37.40;12.40;;;;;;;14.60;100.00;99982.23;273708;1267;23684;-84
2023/09/26 06:09:58;;;;;;;41.60;11.70;;;;;;;14.82;100.00;99987.11;274012;1267;22216;-84
2023/09/26 06:16:44;;;;;;;25.20;10.00;;;;;;;14.93;100.00;99990.37;273969;1267;22843;-83
2023/09/26 06:23:48;;;;;;;18.30;11.50;;;;;;;15.00;100.00;99991.38;274059;1270;22381;-84
2023/09/26 06:30:12;;;;;;;21.60;11.50;;;;;;;15.11;100.00;99987.62;272735;1267;22946;-83
2023/09/26 06:37:08;;;;;;;15.50;10.80;;;;;;;15.20;100.00;99982.26;273484;1267;22193;-84
2023/09/26 06:43:30;;;;;;;18.30;12.10;;;;;;;15.33;100.00;99987.25;273632;1269;22194;-84
2023/09/26 06:50:16;;;;;;;19.20;12.10;;;;;;;15.43;100.00;99982.46;273057;1269;22462;-84
2023/09/26 06:56:57;;;;;;;18.10;12.40;;;;;;;15.52;100.00;99983.16;270440;1269;23944;-84
2023/09/26 07:03:27;;;;;;;18.70;13.70;;;;;;;15.70;100.00;99985.96;273783;1270;22202;-84
2023/09/26 07:09:49;;;;;;;20.70;11.60;;;;;;;15.86;100.00;99989.43;273910;1269;22221;-84
2023/09/26 07:16:14;;;;;;;15.80;10.60;;;;;;;15.96;100.00;99995.88;273791;1267;22329;-84
2023/09/26 07:22:58;;;;;;;18.30;12.60;;;;;;;16.05;100.00;99999.39;273848;1270;23198;-84
2023/09/26 07:30:32;;;;;;;16.00;12.30;;;;;;;16.21;100.00;99999.02;273629;1269;22906;-84
2023/09/26 07:37:14;;;;;;;17.10;11.20;;;;;;;16.41;100.00;99998.77;273428;1269;22204;-84
2023/09/26 07:43:40;;;;;;;14.10;10.70;;;;;;;16.79;100.00;99999.06;273895;1270;22283;-84
2023/09/26 07:50:03;;;;;;;15.70;9.50;;;;;;;17.35;100.00;99996.59;274015;1269;22377;-84
2023/09/26 07:56:26;;;;;;;12.10;8.60;;;;;;;17.88;100.00;99992.02;273695;1269;22369;-85
2023/09/26 08:02:27;;;;;;;9.60;7.30;;;;;;;18.27;100.00;99984.77;273910;1275;23197;-85
2023/09/26 08:08:30;;;;;;;10.40;8.10;;;;;;;18.61;100.00;99984.15;273950;1270;22167;-84
2023/09/26 08:14:55;;;;;;;9.60;7.50;;;;;;;18.97;100.00;99983.52;273771;1269;22178;-85
2023/09/26 08:21:25;;;;;;;10.60;7.10;;;;;;;19.36;100.00;99985.86;273655;1253;23589;-85
2023/09/26 08:28:28;;;;;;;9.90;6.90;;;;;;;19.64;100.00;99976.96;273950;1269;22940;-85
2023/09/26 08:35:33;;;;;;;11.80;6.30;;;;;;;20.01;100.00;99974.19;274018;1271;24281;-85
2023/09/26 08:41:54;;;;;;;10.10;6.80;;;;;;;20.60;100.00;99967.98;273791;1270;22186;-85
2023/09/26 08:48:37;;;;;;;12.80;6.40;;;;;;;21.32;100.00;99971.08;273718;1275;22189;-85
2023/09/26 08:54:59;;;;;;;13.50;6.80;;;;;;;22.24;100.00;99965.23;273699;1263;22178;-83
2023/09/26 09:01:02;;;;;;;7.80;5.70;;;;;;;23.13;100.00;99959.41;273458;1260;22543;-83
2023/09/26 09:07:47;;;;;;;6.70;6.00;;;;;;;23.74;100.00;99960.73;270229;1254;22560;-84
2023/09/26 09:14:32;;;;;;;9.40;5.70;;;;;;;24.56;100.00;99956.64;273658;1269;22339;-85
2023/09/26 09:20:53;;;;;;;7.40;5.60;;;;;;;25.23;100.00;99948.19;271981;1269;26271;-84
2023/09/26 09:26:59;;;;;;;11.60;4.90;;;;;;;26.10;100.00;99947.41;270946;1269;22936;-84
2023/09/26 09:33:01;;;;;;;8.00;5.00;;;;;;;26.62;100.00;99943.42;272446;1269;22566;-84
2023/09/26 09:39:04;;;;;;;10.20;5.00;;;;;;;27.19;100.00;99935.82;270981;1269;22365;-84
2023/09/26 09:45:06;;;;;;;6.80;5.60;;;;;;;27.59;100.00;99933.31;270643;1269;22551;-84
2023/09/26 09:51:50;;;;;;;7.30;5.20;;;;;;;28.04;100.00;99928.38;271210;1265;22634;-85
2023/09/26 09:58:44;;;;;;;8.00;5.10;;;;;;;28.31;100.00;99926.34;271430;1269;22385;-85
2023/09/26 10:04:47;;;;;;;7.70;5.60;;;;;;;28.57;100.00;99923.52;271459;1269;22559;-85
2023/09/26 10:18:17;;;;;;;6.50;4.80;;;;;;;29.29;98.10;99912.98;272808;1267;23377;-84
2023/09/26 10:24:21;;;;;;;6.90;5.30;;;;;;;29.41;94.78;99914.52;271499;1263;22995;-85
2023/09/26 10:30:28;;;;;;;8.30;5.10;;;;;;;29.48;91.96;99914.27;273789;1268;22406;-85
2023/09/26 10:37:15;;;;;;;8.70;4.90;;;;;;;29.52;90.42;99910.02;272692;1272;22265;-85
2023/09/26 10:43:38;;;;;;;7.70;4.90;;;;;;;29.54;88.30;99909.01;273019;1270;22334;-85
2023/09/26 10:49:39;;;;;;;8.20;4.70;;;;;;;29.32;86.70;99902.02;272993;1266;22224;-86
2023/09/26 10:56:07;;;;;;;9.90;4.90;;;;;;;28.97;85.35;99903.13;272835;1272;22223;-86
2023/09/26 11:02:09;;;;;;;7.70;5.70;;;;;;;28.65;84.56;99898.51;272938;1269;22218;-84
2023/09/26 11:08:54;;;;;;;9.80;5.10;;;;;;;28.43;83.66;99896.31;273454;1268;22363;-85
2023/09/26 11:15:21;;;;;;;9.30;5.10;;;;;;;28.19;82.35;99890.67;273587;1269;22169;-85
2023/09/26 11:21:22;;;;;;;12.30;5.30;;;;;;;27.74;80.69;99892.01;273903;1272;22354;-84
2023/09/26 11:27:24;;;;;;;10.40;5.40;;;;;;;27.34;80.18;99886.54;273975;1269;22217;-86
2023/09/26 11:33:47;;;;;;;9.60;5.90;;;;;;;26.89;78.97;99882.90;273857;1269;22920;-85
2023/09/26 11:39:54;;;;;;;12.70;5.80;;;;;;;26.42;78.76;99881.48;273428;1269;22553;-85
2023/09/26 11:46:50;;;;;;;12.30;6.90;;;;;;;26.15;78.81;99878.68;273571;1269;22671;-85
2023/09/26 11:53:25;;;;;;;8.00;5.80;;;;;;;25.87;79.25;99873.46;273866;1269;22257;-85
2023/09/26 12:00:11;;;;;;;9.40;6.20;;;;;;;25.64;78.62;99872.71;273504;1269;151466;-85
2023/09/26 12:06:40;;;;;;;12.10;6.60;;;;;;;25.30;78.28;99868.08;273694;1269;22885;-85
2023/09/26 12:13:06;;;;;;;10.90;6.40;;;;;;;25.10;78.86;99862.53;273766;1276;23234;-84
2023/09/26 12:19:45;;;;;;;8.70;6.10;;;;;;;24.93;79.60;99854.57;273975;1269;23296;-84
2023/09/26 12:26:07;;;;;;;8.80;5.90;;;;;;;24.86;79.59;99851.95;273887;1269;23443;-85
2023/09/26 12:32:17;;;;;;;9.50;5.60;;;;;;;24.76;79.73;99842.79;273682;1269;22211;-84
2023/09/26 12:46:16;;;;;;;8.70;6.00;;;;;;;24.64;80.24;99841.61;273737;1269;22979;-85
2023/09/26 12:52:39;;;;;;;10.20;5.50;;;;;;;24.62;80.96;99837.60;273690;1269;22234;-84
2023/09/26 12:59:02;;;;;;;10.00;6.10;;;;;;;24.60;81.36;99834.71;273623;1272;22184;-85
2023/09/26 13:05:06;;;;;;;8.40;5.50;;;;;;;24.58;81.64;99831.02;271810;1268;22514;-85
2023/09/26 13:11:08;;;;;;;9.20;5.20;;;;;;;24.55;81.70;99826.71;270840;1268;22395;-85
2023/09/26 13:17:12;;;;;;;9.70;5.90;;;;;;;24.47;81.97;99820.48;272082;1269;22575;-84
2023/09/26 13:23:23;;;;;;;12.50;7.00;;;;;;;24.45;82.30;99818.70;270241;1269;22622;-84
2023/09/26 13:30:11;;;;;;;9.20;5.90;;;;;;;24.43;83.07;99813.92;271817;1269;22390;-84
2023/09/26 13:37:14;;;;;;;11.10;6.20;;;;;;;24.34;83.41;99816.06;273801;1269;22167;-84
2023/09/26 13:43:37;;;;;;;13.00;6.70;;;;;;;24.25;83.58;99817.46;273600;1269;22243;-85
2023/09/26 13:49:59;;;;;;;8.90;6.50;;;;;;;24.22;84.42;99814.89;273623;1272;22959;-84
2023/09/26 13:56:01;;;;;;;9.60;7.00;;;;;;;24.17;85.11;99810.44;273542;1269;23976;-85
2023/09/26 14:09:42;;;;;;;10.70;8.60;;;;;;;24.06;86.36;99809.25;273853;1270;22243;-84
2023/09/26 14:15:44;;;;;;;11.30;8.10;;;;;;;24.07;86.91;99805.30;273899;1276;22828;-83
2023/09/26 14:29:31;;;;;;;12.20;8.40;;;;;;;24.03;87.24;99803.98;273669;1269;22240;-85
2023/09/26 14:35:39;;;;;;;9.70;7.30;;;;;;;23.96;87.49;99798.59;273833;1269;23246;-84
2023/09/26 14:42:00;;;;;;;12.70;8.00;;;;;;;23.91;87.59;99802.66;273672;1269;22942;-84
2023/09/26 14:48:44;;;;;;;12.60;8.50;;;;;;;23.84;88.15;99794.48;273532;1269;22382;-84
2023/09/26 14:55:27;;;;;;;13.20;7.70;;;;;;;23.75;88.07;99792.09;273685;1269;22737;-84
2023/09/26 15:02:10;;;;;;;13.70;9.20;;;;;;;23.74;88.18;99792.05;273886;1275;22173;-84
2023/09/26 15:08:19;;;;;;;13.00;8.30;;;;;;;23.69;88.30;99789.25;273617;1277;23047;-84
2023/09/26 15:15:08;;;;;;;11.30;9.10;;;;;;;23.62;88.57;99787.70;273831;1269;22255;-83
2023/09/26 15:21:24;;;;;;;13.20;9.10;;;;;;;23.52;88.84;99782.32;273906;1259;22372;-84
2023/09/26 15:28:24;;;;;;;14.40;8.30;;;;;;;23.44;89.12;99781.22;273798;1269;22261;-83
2023/09/26 15:34:46;;;;;;;10.80;9.10;;;;;;;23.32;89.47;99782.44;273881;1262;23044;-84
2023/09/26 15:41:49;;;;;;;12.70;8.60;;;;;;;23.17;89.56;99783.66;273565;1269;22270;-83
2023/09/26 15:48:11;;;;;;;13.60;9.10;;;;;;;23.00;90.25;99787.58;272445;1270;22400;-84
2023/09/26 15:54:54;;;;;;;18.10;11.10;;;;;;;22.86;90.79;99786.03;273490;1269;22549;-83
2023/09/26 16:00:56;;;;;;;18.30;11.70;;;;;;;22.69;91.45;99782.80;271381;1269;23123;-84
2023/09/26 16:07:01;;;;;;;22.80;11.60;;;;;;;22.52;91.95;99786.18;271522;1269;23820;-83
2023/09/26 16:13:22;;;;;;;20.00;13.30;;;;;;;22.32;92.85;99786.65;271120;1267;23886;-84
2023/09/26 16:19:38;;;;;;;19.60;12.00;;;;;;;22.13;93.76;99786.62;270887;1268;22664;-84
2023/09/26 16:26:11;;;;;;;22.60;13.70;;;;;;;21.95;94.57;99790.54;271325;1269;22226;-84
2023/09/26 16:32:13;;;;;;;24.60;15.00;;;;;;;21.73;95.44;99791.31;271678;1269;22461;-84
2023/09/26 16:38:17;;;;;;;22.00;13.30;;;;;;;21.51;96.28;99794.14;270412;1268;23559;-84
2023/09/26 16:44:20;;;;;;;17.50;11.70;;;;;;;21.30;97.12;99792.81;271518;1269;23165;-84
2023/09/26 16:50:24;;;;;;;17.10;11.60;;;;;;;21.10;97.70;99788.27;271024;1269;22564;-84
2023/09/26 16:57:20;;;;;;;18.40;11.90;;;;;;;20.89;98.67;99788.34;271396;1264;22425;-83
2023/09/26 17:03:26;;;;;;;19.10;11.70;;;;;;;20.70;99.36;99790.58;273874;1272;22262;-83
2023/09/26 17:09:30;;;;;;;22.30;13.40;;;;;;;20.52;99.80;99797.55;273971;1275;22355;-83
2023/09/26 17:15:32;;;;;;;17.40;11.70;;;;;;;20.35;99.92;99795.85;273863;1269;22145;-83
2023/09/26 17:21:54;;;;;;;18.00;12.30;;;;;;;20.22;100.00;99794.30;273974;1266;22198;-83
2023/09/26 17:35:22;;;;;;;17.00;12.60;;;;;;;19.91;100.00;99796.54;273660;1269;22813;-84
2023/09/26 17:41:50;;;;;;;17.60;13.50;;;;;;;19.77;100.00;99797.91;273548;1269;22200;-83
2023/09/26 17:47:51;;;;;;;21.60;14.20;;;;;;;19.56;100.00;99795.17;273738;1269;22226;-84
2023/09/26 17:54:36;;;;;;;18.90;14.80;;;;;;;19.36;100.00;99796.45;273888;1275;23324;-83
2023/09/26 18:01:22;;;;;;;20.20;14.30;;;;;;;19.19;100.00;99800.82;273938;1270;22211;-83
2023/09/26 18:07:46;;;;;;;25.70;15.10;;;;;;;19.05;100.00;99802.23;273878;1272;22557;-83
2023/09/26 18:14:11;;;;;;;20.20;14.00;;;;;;;18.87;100.00;99804.55;273352;1269;22194;-83
2023/09/26 18:20:56;;;;;;;21.50;15.40;;;;;;;18.65;100.00;99810.14;273836;1270;22397;-84
2023/09/26 18:27:51;;;;;;;20.20;13.90;;;;;;;18.57;100.00;99806.88;272537;1269;22426;-83
2023/09/26 18:33:56;;;;;;;21.10;15.50;;;;;;;18.49;100.00;99804.01;273854;1272;23089;-84
2023/09/26 18:40:28;;;;;;;20.10;13.80;;;;;;;18.41;100.00;99804.06;273825;1269;22422;-84
2023/09/26 18:46:31;;;;;;;19.90;14.20;;;;;;;18.26;100.00;99807.55;273888;1273;22370;-84
2023/09/26 18:52:53;;;;;;;16.90;13.50;;;;;;;18.10;100.00;99811.31;273947;1269;22195;-83
2023/09/26 18:58:56;;;;;;;22.10;13.70;;;;;;;17.93;100.00;99808.64;273756;1270;22271;-83
2023/09/26 19:05:04;;;;;;;22.20;14.80;;;;;;;17.77;100.00;99809.83;273528;1270;22295;-83
2023/09/26 19:11:06;;;;;;;22.80;14.00;;;;;;;17.65;100.00;99813.52;273829;1273;22205;-83
2023/09/26 19:17:48;;;;;;;21.90;14.40;;;;;;;17.56;100.00;99816.73;273807;1276;22176;-83
2023/09/26 19:24:51;;;;;;;24.30;14.40;;;;;;;17.48;100.00;99819.37;273763;1272;22386;-83
2023/09/26 19:31:16;;;;;;;20.40;12.10;;;;;;;17.42;100.00;99824.98;271920;1269;22405;-84
2023/09/26 19:37:18;;;;;;;17.10;12.50;;;;;;;17.37;100.00;99829.27;273365;1264;22560;-84
2023/09/26 19:43:20;;;;;;;20.00;13.90;;;;;;;17.34;100.00;99827.77;270269;1269;22547;-84
2023/09/26 19:49:50;;;;;;;17.10;13.10;;;;;;;17.25;100.00;99827.48;271178;1268;22507;-83
2023/09/26 19:56:35;;;;;;;19.80;13.60;;;;;;;17.04;100.00;99829.33;273562;1269;23521;-84
2023/09/26 20:02:56;;;;;;;19.60;14.10;;;;;;;16.87;100.00;99829.05;273690;1273;22169;-84
2023/09/26 20:08:59;;;;;;;20.90;14.60;;;;;;;16.72;100.00;99829.45;272984;1269;22565;-84
2023/09/26 20:15:01;;;;;;;20.40;14.50;;;;;;;16.62;100.00;99824.48;271371;1269;22640;-83
2023/09/26 20:21:27;;;;;;;22.80;16.50;;;;;;;16.46;100.00;99822.32;273795;1275;22217;-82
2023/09/26 20:27:55;;;;;;;22.50;16.70;;;;;;;16.32;100.00;99826.17;273814;1269;22186;-83
2023/09/26 20:34:02;;;;;;;21.20;13.80;;;;;;;16.24;100.00;99827.81;273862;1269;23523;-83
2023/09/26 20:40:04;;;;;;;26.30;16.70;;;;;;;16.11;100.00;99832.77;273912;1270;23985;-83
2023/09/26 20:54:02;;;;;;;23.30;15.90;;;;;;;15.88;100.00;99829.80;273842;1271;22188;-83
2023/09/26 21:00:04;;;;;;;24.70;13.30;;;;;;;15.73;100.00;99826.89;273289;1270;22407;-83
2023/09/26 21:06:15;;;;;;;20.30;15.90;;;;;;;15.61;100.00;99828.59;273817;1270;22195;-82
2023/09/26 21:12:57;;;;;;;22.30;13.70;;;;;;;15.45;100.00;99832.44;273578;1276;22187;-83
2023/09/26 21:19:57;;;;;;;19.60;13.80;;;;;;;15.23;100.00;99831.67;273722;1270;22379;-82
2023/09/26 21:25:59;;;;;;;23.60;14.00;;;;;;;15.06;100.00;99831.80;273713;1276;22363;-82
2023/09/26 21:32:41;;;;;;;21.30;15.20;;;;;;;14.96;100.00;99832.70;273555;1267;22909;-82
2023/09/26 21:39:13;;;;;;;22.00;13.30;;;;;;;14.97;100.00;99835.69;273588;1270;23469;-83
2023/09/26 21:45:15;;;;;;;21.00;14.70;;;;;;;14.95;100.00;99836.14;273492;1267;22470;-83
2023/09/26 21:51:16;;;;;;;21.30;13.90;;;;;;;14.86;100.00;99835.94;272802;1269;23495;-82
2023/09/26 21:57:20;;;;;;;22.70;15.20;;;;;;;14.84;100.00;99839.23;272788;1270;22536;-83
2023/09/26 22:03:22;;;;;;;16.60;11.60;;;;;;;14.89;100.00;99839.96;271172;1269;22545;-82
2023/09/26 22:10:09;;;;;;;20.90;10.90;;;;;;;14.90;100.00;99844.46;271081;1269;23430;-83
2023/09/26 22:16:33;;;;;;;22.00;14.10;;;;;;;14.83;100.00;99837.08;273976;1272;22311;-83
2023/09/26 22:23:10;;;;;;;18.40;13.40;;;;;;;14.75;100.00;99838.20;273795;1269;22179;-82
2023/09/26 22:29:14;;;;;;;17.00;12.40;;;;;;;14.63;100.00;99831.73;273930;1270;22173;-83
2023/09/26 22:35:56;;;;;;;16.80;13.40;;;;;;;14.54;100.00;99831.27;273957;1273;22172;-83
2023/09/26 22:42:51;;;;;;;27.50;13.60;;;;;;;14.41;100.00;99829.20;273654;1268;22193;-83
2023/09/26 22:49:15;;;;;;;17.70;13.00;;;;;;;14.28;100.00;99825.13;273662;1266;22253;-83
2023/09/26 22:55:34;;;;;;;17.20;13.00;;;;;;;14.22;100.00;99833.94;273474;1269;22191;-83
2023/09/26 23:01:56;;;;;;;18.70;12.70;;;;;;;14.15;100.00;99833.95;273729;1269;22643;-83
2023/09/26 23:08:21;;;;;;;19.80;13.70;;;;;;;14.07;100.00;99831.34;273704;1269;22119;-83
2023/09/26 23:15:04;;;;;;;15.40;9.10;;;;;;;14.00;100.00;99829.54;273719;1269;22168;-82
2023/09/26 23:22:05;;;;;;;18.20;12.70;;;;;;;13.90;100.00;99835.80;273606;1269;22161;-83
2023/09/26 23:29:07;;;;;;;17.00;12.30;;;;;;;13.78;100.00;99840.85;273722;1276;22402;-82
2023/09/26 23:36:14;;;;;;;18.80;12.40;;;;;;;13.65;100.00;99839.29;273328;1269;22518;-82
2023/09/26 23:42:17;;;;;;;17.10;11.40;;;;;;;13.50;100.00;99836.35;271169;1269;22658;-83
2023/09/26 23:48:30;;;;;;;18.50;11.80;;;;;;;13.50;100.00;99839.04;271136;1269;22583;-83
2023/09/26 23:54:35;;;;;;;20.30;14.30;;;;;;;13.45;100.00;99839.74;271161;1269;23711;-82
